Terminal Aerodrome Forecast
Issued by NWS Lake Charles, LA

Home | Current Version | Previous Version | Text Only | Print | Product List | Glossary On
Versions: 1 2 3 4 5 6 7 8 9 10 11 12 13 14 15 16 17 18 19 20 21 22
000
FTUS44 KLCH 221100
TAFAEX
TAF
KAEX 221135Z 2212/2312 16007KT 3/4SM BR VV002
     FM221600 19014G20KT P6SM SCT009 OVC019
     FM230000 25007KT P6SM SCT014 OVC025
     FM230900 01004KT 3SM BR BKN007 BKN040=

USA.gov is the U.S. government's official web portal to all federal, state and local government web resources and services.